createdAt,value
2015-10-05T00:00:27.586Z,1008
2015-10-05T00:01:27.308Z,1008
2015-10-05T00:02:27.248Z,1008
2015-10-05T00:03:27.407Z,1008
2015-10-05T00:04:27.145Z,1008
2015-10-05T00:05:27.084Z,1008
2015-10-05T00:06:27.040Z,1008
2015-10-05T00:07:26.981Z,1008.1
2015-10-05T00:08:26.921Z,1008.1
2015-10-05T00:09:26.893Z,1008
2015-10-05T00:10:27.020Z,1008.1
2015-10-05T00:11:26.756Z,1008
2015-10-05T00:12:26.948Z,1008
2015-10-05T00:13:26.685Z,1007.9
2015-10-05T00:14:26.812Z,1008
2015-10-05T00:15:26.550Z,1007.9
2015-10-05T00:16:26.489Z,1008
2015-10-05T00:17:26.430Z,1008
2015-10-05T00:18:26.401Z,1008
2015-10-05T00:19:26.342Z,1008
2015-10-05T00:20:26.266Z,1007.9
2015-10-05T00:21:26.222Z,1008.1
2015-10-05T00:22:26.412Z,1008
2015-10-05T00:23:26.322Z,1007.9
2015-10-05T00:24:26.075Z,1008.1
2015-10-05T00:25:26.030Z,1007.9
2015-10-05T00:26:25.954Z,1008
2015-10-05T00:27:25.911Z,1007.9
2015-10-05T00:28:25.866Z,1008
2015-10-05T00:29:25.791Z,1008
2015-10-05T00:30:25.747Z,1008
2015-10-05T00:31:25.937Z,1007.9
2015-10-05T00:32:25.644Z,1007.9
2015-10-05T00:33:25.599Z,1008
2015-10-05T00:34:25.524Z,1008
2015-10-05T00:35:25.510Z,1007.9
2015-10-05T00:36:25.435Z,1008
2015-10-05T00:37:25.375Z,1008
2015-10-05T00:38:25.316Z,1008
2015-10-05T00:39:25.271Z,1008.1
2015-10-05T00:40:25.211Z,1008
2015-10-05T00:41:25.152Z,1008
2015-10-05T00:42:25.341Z,1008
2015-10-05T00:43:25.045Z,1008
2015-10-05T00:44:24.985Z,1007.9
2015-10-05T00:45:24.941Z,1008
2015-10-05T00:46:24.897Z,1008
2015-10-05T00:47:24.838Z,1008
2015-10-05T00:48:24.777Z,1008
2015-10-05T00:49:24.732Z,1008
2015-10-05T00:50:24.674Z,1008
2015-10-05T00:51:24.613Z,1008
2015-10-05T00:52:24.585Z,1008
2015-10-05T00:53:24.713Z,1008.1
2015-10-05T00:54:24.465Z,1008
2015-10-05T00:55:24.421Z,1008.1
2015-10-05T00:56:24.346Z,1008
2015-10-05T00:57:24.301Z,1008.1
2015-10-05T00:58:24.243Z,1008.2
2015-10-05T00:59:24.198Z,1008.1
2015-10-05T01:00:24.138Z,1008.2
2015-10-05T01:01:24.298Z,1008.3
2015-10-05T01:02:24.019Z,1008.1
2015-10-05T01:03:24.193Z,1008.2
2015-10-05T01:04:23.931Z,1008
2015-10-05T01:05:23.870Z,1008.1
2015-10-05T01:06:23.811Z,1008.1
2015-10-05T01:07:23.798Z,1008.2
2015-10-05T01:08:23.707Z,1008
2015-10-05T01:09:37.788Z,1008.1
2015-10-05T01:10:23.619Z,1008.2
2015-10-05T01:11:23.559Z,1008.1
2015-10-05T01:12:23.500Z,1008.1
2015-10-05T01:13:23.440Z,1007.9
2015-10-05T01:14:23.411Z,1008
2015-10-05T01:15:23.539Z,1008
2015-10-05T01:16:23.276Z,1008
2015-10-05T01:17:23.248Z,1008
2015-10-05T01:18:23.172Z,1008.1
2015-10-05T01:19:23.128Z,1008
2015-10-05T01:20:23.084Z,1008
2015-10-05T01:21:23.025Z,1008
2015-10-05T01:22:22.981Z,1008
2015-10-05T01:23:22.905Z,1008
2015-10-05T01:24:22.876Z,1008
2015-10-05T01:25:22.832Z,1008
2015-10-05T01:26:22.772Z,1008.1
2015-10-05T01:27:22.712Z,1008.2
2015-10-05T01:28:22.855Z,1008.2
2015-10-05T01:29:22.592Z,1008.2
2015-10-05T01:30:22.530Z,1008.2
2015-10-05T01:31:22.486Z,1008.2
2015-10-05T01:32:22.427Z,1008.1
2015-10-05T01:33:22.367Z,1008.1
2015-10-05T01:34:22.339Z,1008.2
2015-10-05T01:35:22.264Z,1008
2015-10-05T01:36:22.203Z,1008.1
2015-10-05T01:37:22.143Z,1008.1
2015-10-05T01:38:22.099Z,1008.2
2015-10-05T01:39:22.039Z,1008
2015-10-05T01:40:21.995Z,1008
2015-10-05T01:41:21.936Z,1008.1
2015-10-05T01:42:21.892Z,1008
2015-10-05T01:43:21.833Z,1008
2015-10-05T01:44:21.772Z,1008.2
2015-10-05T01:45:21.728Z,1008
2015-10-05T01:46:21.668Z,1008.1
2015-10-05T01:47:21.625Z,1008
2015-10-05T01:48:21.596Z,1008
2015-10-05T01:49:21.505Z,1008.1
2015-10-05T01:50:21.460Z,1008
2015-10-05T01:51:21.416Z,1008
2015-10-05T01:52:21.357Z,1008
2015-10-05T01:53:21.297Z,1008
2015-10-05T01:54:21.238Z,1008.1
2015-10-05T01:55:21.177Z,1008
2015-10-05T01:56:21.133Z,1008.1
2015-10-05T01:57:21.073Z,1008
2015-10-05T01:58:21.013Z,1008.1
2015-10-05T01:59:20.969Z,1008.1
2015-10-05T02:00:20.925Z,1008.1
2015-10-05T02:01:20.866Z,1008.2
2015-10-05T02:02:20.805Z,1008.2
2015-10-05T02:03:20.762Z,1008.1
2015-10-05T02:04:20.952Z,1008.1
2015-10-05T02:05:20.657Z,1008.3
2015-10-05T02:06:20.598Z,1008.1
2015-10-05T02:07:20.538Z,1008.1
2015-10-05T02:08:20.510Z,1008.2
2015-10-05T02:09:20.435Z,1008.1
2015-10-05T02:10:20.390Z,1008
2015-10-05T02:11:20.330Z,1008.1
2015-10-05T02:12:20.287Z,1008
2015-10-05T02:13:20.243Z,1008.1
2015-10-05T02:14:20.168Z,1008.1
2015-10-05T02:15:20.123Z,1008.1
2015-10-05T02:16:20.062Z,1008.2
2015-10-05T02:17:20.003Z,1008.2
2015-10-05T02:18:20.396Z,1008.2
2015-10-05T02:19:19.912Z,1008.2
2015-10-05T02:20:19.837Z,1008.3
2015-10-05T02:21:19.792Z,1008.1
2015-10-05T02:22:19.732Z,1008
2015-10-05T02:23:19.690Z,1008.2
2015-10-05T02:24:19.629Z,1008.2
2015-10-05T02:25:19.569Z,1008
2015-10-05T02:26:19.509Z,1008
2015-10-05T02:27:19.465Z,1008.1
2015-10-05T02:28:19.421Z,1008
2015-10-05T02:29:19.377Z,1007.9
2015-10-05T02:30:19.287Z,1008
2015-10-05T02:31:19.257Z,1007.9
2015-10-05T02:32:19.181Z,1008
2015-10-05T02:33:19.154Z,1008.1
2015-10-05T02:34:19.079Z,1008
2015-10-05T02:35:19.050Z,1007.9
2015-10-05T02:36:18.975Z,1008
2015-10-05T02:37:18.930Z,1008
2015-10-05T02:38:18.870Z,1008
2015-10-05T02:39:18.811Z,1008
2015-10-05T02:40:18.767Z,1008
2015-10-05T02:41:18.706Z,1008
2015-10-05T02:42:18.647Z,1007.9
2015-10-05T02:43:18.603Z,1008.1
2015-10-05T02:44:18.793Z,1008
2015-10-05T02:45:18.483Z,1007.9
2015-10-05T02:46:18.439Z,1008
2015-10-05T02:47:18.380Z,1007.9
2015-10-05T02:48:18.569Z,1008
2015-10-05T02:49:18.276Z,1008
2015-10-05T02:50:18.263Z,1008
2015-10-05T02:51:18.172Z,1008
2015-10-05T02:52:18.111Z,1008
2015-10-05T02:53:18.084Z,1008
2015-10-05T02:54:18.024Z,1008
2015-10-05T02:55:17.948Z,1007.9
2015-10-05T02:56:17.905Z,1007.8
2015-10-05T02:57:17.844Z,1007.9
2015-10-05T02:58:17.800Z,1007.9
2015-10-05T02:59:17.756Z,1008
2015-10-05T03:00:17.680Z,1008
2015-10-05T03:01:17.636Z,1007.9
2015-10-05T03:02:17.577Z,1007.9
2015-10-05T03:03:17.533Z,1007.9
2015-10-05T03:04:17.722Z,1007.8
2015-10-05T03:05:17.429Z,1007.9
2015-10-05T03:06:17.385Z,1008
2015-10-05T03:07:17.310Z,1008
2015-10-05T03:08:17.280Z,1007.8
2015-10-05T03:09:17.221Z,1008
2015-10-05T03:10:17.349Z,1007.8
2015-10-05T03:11:17.114Z,1007.9
2015-10-05T03:12:17.039Z,1007.9
2015-10-05T03:13:16.994Z,1007.9
2015-10-05T03:14:16.951Z,1007.8
2015-10-05T03:15:16.140Z,1007.9
2015-10-05T03:16:16.862Z,1007.8
2015-10-05T03:17:16.802Z,1007.9
2015-10-05T03:18:16.727Z,1007.8
2015-10-05T03:19:16.870Z,1007.7
2015-10-05T03:20:16.623Z,1007.7
2015-10-05T03:21:16.563Z,1007.7
2015-10-05T03:22:16.504Z,1007.7
2015-10-05T03:23:16.475Z,1007.7
2015-10-05T03:24:16.399Z,1007.7
2015-10-05T03:25:16.356Z,1007.7
2015-10-05T03:26:16.327Z,1007.8
2015-10-05T03:27:16.237Z,1007.8
2015-10-05T03:28:16.192Z,1007.8
2015-10-05T03:29:15.367Z,1007.8
2015-10-05T03:30:16.088Z,1007.8
2015-10-05T03:31:17.873Z,1007.8
2015-10-05T03:33:16.940Z,1007.8
2015-10-05T03:34:16.021Z,1007.8
2015-10-05T03:35:16.055Z,1007.7
2015-10-05T03:37:44.451Z,1007.7
2015-10-05T03:38:30.422Z,1007.7
2015-10-05T03:39:15.613Z,1007.8
2015-10-05T03:40:15.584Z,1007.8
2015-10-05T03:41:15.540Z,1007.7
2015-10-05T03:45:16.551Z,1007.7
2015-10-05T03:46:15.538Z,1007.7
2015-10-05T03:47:15.604Z,1007.8
2015-10-05T03:48:15.387Z,1007.8
2015-10-05T03:49:43.640Z,1007.6
2015-10-05T03:50:15.064Z,1007.6
2015-10-05T03:51:29.895Z,1007.7
2015-10-05T03:52:29.164Z,1007.7
2015-10-05T03:54:15.373Z,1007.6
2015-10-05T03:55:15.313Z,1007.6
2015-10-05T03:56:15.394Z,1007.6
2015-10-05T03:57:14.693Z,1007.6
2015-10-05T03:58:14.633Z,1007.7
2015-10-05T03:59:14.855Z,1007.8
2015-10-05T04:00:14.452Z,1007.7
2015-10-05T04:01:16.408Z,1007.7
2015-10-05T04:02:14.488Z,1007.8
2015-10-05T04:03:29.975Z,1007.7
2015-10-05T04:04:28.681Z,1007.7
2015-10-05T04:05:16.728Z,1007.7
2015-10-05T04:07:14.389Z,1007.7
2015-10-05T04:09:14.270Z,1007.7
2015-10-05T04:10:14.022Z,1007.7
2015-10-05T04:11:14.166Z,1007.7
2015-10-05T04:12:14.825Z,1007.7
2015-10-05T04:13:14.469Z,1007.7
2015-10-05T04:14:13.799Z,1007.7
2015-10-05T04:15:13.725Z,1007.7
2015-10-05T04:16:13.914Z,1007.7
2015-10-05T04:17:13.635Z,1007.7
2015-10-05T04:18:13.561Z,1007.6
2015-10-05T04:19:13.533Z,1007.6
2015-10-05T04:20:13.457Z,1007.5
2015-10-05T04:21:13.413Z,1007.6
2015-10-05T04:22:13.353Z,1007.5
2015-10-05T04:23:13.324Z,1007.5
2015-10-05T04:24:13.249Z,1007.5
2015-10-05T04:25:13.205Z,1007.5
2015-10-05T04:26:13.146Z,1007.6
2015-10-05T04:27:13.288Z,1007.5
2015-10-05T04:28:13.058Z,1007.5
2015-10-05T04:29:12.996Z,1007.5
2015-10-05T04:30:12.922Z,1007.6
2015-10-05T04:31:12.877Z,1007.6
2015-10-05T04:32:12.833Z,1007.7
2015-10-05T04:33:12.757Z,1007.6
2015-10-05T04:34:11.995Z,1007.7
2015-10-05T04:35:12.670Z,1007.7
2015-10-05T04:36:12.594Z,1007.7
2015-10-05T04:37:12.551Z,1007.7
2015-10-05T04:38:12.507Z,1007.8
2015-10-05T04:39:12.447Z,1007.7
2015-10-05T04:40:12.402Z,1007.7
2015-10-05T04:41:11.592Z,1007.8
2015-10-05T04:42:12.485Z,1007.7
2015-10-05T04:43:12.239Z,1007.6
2015-10-05T04:44:12.179Z,1007.6
2015-10-05T04:45:12.119Z,1007.8
2015-10-05T04:46:12.060Z,1007.6
2015-10-05T04:47:12.047Z,1007.7
2015-10-05T04:48:11.971Z,1007.7
2015-10-05T04:49:11.926Z,1007.8
2015-10-05T04:50:11.848Z,1007.7
2015-10-05T04:51:11.804Z,1007.8
2015-10-05T04:52:11.979Z,1007.7
2015-10-05T04:53:11.560Z,1007.7
2015-10-05T04:54:11.640Z,1007.7
2015-10-05T04:55:11.582Z,1007.8
2015-10-05T04:56:11.537Z,1007.8
2015-10-05T04:57:11.478Z,1007.8
2015-10-05T04:58:11.434Z,1007.8
2015-10-05T04:59:11.358Z,1007.6
2015-10-05T05:00:11.329Z,1007.9
2015-10-05T05:01:11.254Z,1007.8
2015-10-05T05:02:11.210Z,1007.8
2015-10-05T05:03:11.181Z,1007.8
2015-10-05T05:04:11.293Z,1007.9
2015-10-05T05:05:11.046Z,1007.7
2015-10-05T05:06:11.017Z,1007.7
2015-10-05T05:07:11.176Z,1007.8
2015-10-05T05:08:11.133Z,1007.7
2015-10-05T05:09:10.839Z,1007.8
2015-10-05T05:10:10.779Z,1007.8
2015-10-05T05:11:10.954Z,1007.7
2015-10-05T05:12:10.659Z,1007.7
2015-10-05T05:13:10.631Z,1007.7
2015-10-05T05:14:10.556Z,1007.8
2015-10-05T05:15:10.495Z,1007.7
2015-10-05T05:16:10.483Z,1007.8
2015-10-05T05:17:10.392Z,1007.7
2015-10-05T05:18:10.551Z,1007.7
2015-10-05T05:19:10.303Z,1007.7
2015-10-05T05:20:10.243Z,1007.7
2015-10-05T05:21:10.184Z,1007.7
2015-10-05T05:22:10.124Z,1007.7
2015-10-05T05:23:10.064Z,1007.6
2015-10-05T05:24:10.020Z,1007.7
2015-10-05T05:25:09.961Z,1007.7
2015-10-05T05:26:09.916Z,1007.7
2015-10-05T05:27:09.856Z,1007.7
2015-10-05T05:28:09.812Z,1007.8
2015-10-05T05:29:09.002Z,1007.7
2015-10-05T05:30:09.694Z,1007.7
2015-10-05T05:31:09.649Z,1007.8
2015-10-05T05:32:09.588Z,1007.8
2015-10-05T05:33:09.529Z,1007.7
2015-10-05T05:34:09.485Z,1007.7
2015-10-05T05:35:09.425Z,1007.8
2015-10-05T05:36:09.380Z,1007.8
2015-10-05T05:37:09.321Z,1007.8
2015-10-05T05:38:09.261Z,1007.7
2015-10-05T05:39:09.218Z,1007.8
2015-10-05T05:40:09.157Z,1007.8
2015-10-05T05:41:09.113Z,1007.8
2015-10-05T05:42:09.038Z,1007.8
2015-10-05T05:43:08.993Z,1007.7
2015-10-05T05:44:08.949Z,1007.8
2015-10-05T05:45:08.887Z,1007.7
2015-10-05T05:46:09.030Z,1007.6
2015-10-05T05:47:08.768Z,1007.8
2015-10-05T05:48:08.723Z,1007.7
2015-10-05T05:49:08.898Z,1007.7
2015-10-05T05:50:08.620Z,1007.7
2015-10-05T05:51:08.763Z,1007.6
2015-10-05T05:52:08.501Z,1007.7
2015-10-05T05:53:08.471Z,1007.8
2015-10-05T05:54:08.396Z,1007.7
2015-10-05T05:55:08.337Z,1007.6
2015-10-05T05:56:08.293Z,1007.7
2015-10-05T05:57:08.233Z,1007.7
2015-10-05T05:58:08.188Z,1007.7
2015-10-05T05:59:08.129Z,1007.7
2015-10-05T06:00:08.068Z,1007.8
2015-10-05T06:01:08.025Z,1007.8
2015-10-05T06:02:07.215Z,1007.7
2015-10-05T06:03:07.906Z,1007.8
2015-10-05T06:04:07.862Z,1007.8
2015-10-05T06:05:07.818Z,1007.9
2015-10-05T06:06:07.757Z,1008
2015-10-05T06:07:07.698Z,1007.8
2015-10-05T06:08:07.638Z,1007.8
2015-10-05T06:09:07.578Z,1007.9
2015-10-05T06:10:07.550Z,1008
2015-10-05T06:11:06.959Z,1008
2015-10-05T06:12:07.445Z,1008
2015-10-05T06:13:07.370Z,1007.9
2015-10-05T06:14:07.325Z,1008
2015-10-05T06:15:07.266Z,1008
2015-10-05T06:16:07.207Z,1007.8
2015-10-05T06:17:07.162Z,1008
2015-10-05T06:18:07.103Z,1007.9
2015-10-05T06:19:07.042Z,1007.9
2015-10-05T06:20:06.998Z,1008
2015-10-05T06:21:07.142Z,1008
2015-10-05T06:22:06.895Z,1008
2015-10-05T06:23:06.836Z,1008.1
2015-10-05T06:24:06.776Z,1008.1
2015-10-05T06:25:06.747Z,1008
2015-10-05T06:26:06.905Z,1008.1
2015-10-05T06:27:06.627Z,1008.1
2015-10-05T06:28:06.567Z,1008.2
2015-10-05T06:29:06.539Z,1008.1
2015-10-05T06:30:06.463Z,1008.1
2015-10-05T06:31:06.638Z,1008
2015-10-05T06:32:06.360Z,1008.1
2015-10-05T06:33:06.300Z,1008
2015-10-05T06:34:06.241Z,1008.1
2015-10-05T06:35:06.212Z,1008.1
2015-10-05T06:36:06.136Z,1008
2015-10-05T06:37:06.311Z,1008
2015-10-05T06:38:06.030Z,1008
2015-10-05T06:39:05.969Z,1008.1
2015-10-05T06:40:05.925Z,1008.2
2015-10-05T06:41:05.866Z,1008.2
2015-10-05T06:42:05.837Z,1008
2015-10-05T06:43:05.762Z,1008.1
2015-10-05T06:44:05.702Z,1008.1
2015-10-05T06:45:05.674Z,1008.1
2015-10-05T06:46:05.802Z,1008.2
2015-10-05T06:47:05.757Z,1008.2
2015-10-05T06:48:05.510Z,1008.2
2015-10-05T06:49:05.450Z,1008.2
2015-10-05T06:50:05.407Z,1008.1
2015-10-05T06:51:05.331Z,1008.3
2015-10-05T06:52:05.287Z,1008.2
2015-10-05T06:53:05.243Z,1008.2
2015-10-05T06:54:05.199Z,1008.2
2015-10-05T06:55:05.124Z,1008.1
2015-10-05T06:56:04.923Z,1008.2
2015-10-05T06:57:05.033Z,1008
2015-10-05T06:58:04.973Z,1008.1
2015-10-05T06:59:04.913Z,1008.1
2015-10-05T07:00:04.869Z,1008.1
2015-10-05T07:01:04.840Z,1008.1
2015-10-05T07:02:04.765Z,1008.1
2015-10-05T07:03:04.721Z,1008.1
2015-10-05T07:04:04.677Z,1008.1
2015-10-05T07:05:04.618Z,1008.1
2015-10-05T07:06:04.761Z,1008.1
2015-10-05T07:07:04.513Z,1008
2015-10-05T07:08:04.454Z,1008
2015-10-05T07:09:04.394Z,1007.9
2015-10-05T07:10:04.350Z,1008.1
2015-10-05T07:11:04.290Z,1008
2015-10-05T07:12:04.246Z,1008
2015-10-05T07:13:04.186Z,1008
2015-10-05T07:14:04.142Z,1008.1
2015-10-05T07:15:04.082Z,1008.1
2015-10-05T07:16:04.240Z,1008
2015-10-05T07:17:03.994Z,1008.1
2015-10-05T07:18:03.927Z,1008
2015-10-05T07:19:03.870Z,1008.1
2015-10-05T07:20:03.813Z,1008.1
2015-10-05T07:21:03.725Z,1008.2
2015-10-05T07:22:03.684Z,1008.2
2015-10-05T07:23:03.618Z,1008.1
2015-10-05T07:24:03.554Z,1008.1
2015-10-05T07:25:03.693Z,1008
2015-10-05T07:26:03.457Z,1007.9
2015-10-05T07:27:03.379Z,1008
2015-10-05T07:28:02.596Z,1008
2015-10-05T07:29:02.534Z,1008
2015-10-05T07:30:03.223Z,1008
2015-10-05T07:31:03.192Z,1008
2015-10-05T07:32:03.132Z,1008
2015-10-05T07:33:03.069Z,1007.9
2015-10-05T07:34:03.009Z,1007.9
2015-10-05T07:35:02.964Z,1008
2015-10-05T07:36:02.920Z,1008.1
2015-10-05T07:37:02.859Z,1008.1
2015-10-05T07:38:02.815Z,1008.1
2015-10-05T07:39:02.754Z,1008.1
2015-10-05T07:40:02.695Z,1008.2
2015-10-05T07:41:02.651Z,1008.3
2015-10-05T07:42:02.637Z,1008.2
2015-10-05T07:43:02.562Z,1008.3
2015-10-05T07:44:02.503Z,1008.1
2015-10-05T07:45:02.458Z,1008.3
2015-10-05T07:46:02.414Z,1008.2
2015-10-05T07:47:02.339Z,1008.3
2015-10-05T07:48:02.295Z,1008.2
2015-10-05T07:49:02.251Z,1008.2
2015-10-05T07:50:02.190Z,1008.3
2015-10-05T07:51:02.147Z,1008.2
2015-10-05T07:52:02.103Z,1008.2
2015-10-05T07:53:02.043Z,1008.1
2015-10-05T07:54:01.436Z,1008.2
2015-10-05T07:55:01.940Z,1008.2
2015-10-05T07:56:01.895Z,1008.2
2015-10-05T07:57:01.866Z,1008.2
2015-10-05T07:58:01.776Z,1008.2
2015-10-05T07:59:01.747Z,1008.2
2015-10-05T08:00:01.531Z,1008.2
2015-10-05T08:01:01.643Z,1008.3
2015-10-05T08:02:01.598Z,1008.2
2015-10-05T08:03:01.524Z,1008.3
2015-10-05T08:04:01.495Z,1008.3
2015-10-05T08:05:01.435Z,1008.3
2015-10-05T08:06:01.376Z,1008.3
2015-10-05T08:07:01.332Z,1008.3
2015-10-05T08:08:01.287Z,1008.3
2015-10-05T08:09:01.211Z,1008.3
2015-10-05T08:10:01.167Z,1008.3
2015-10-05T08:11:01.327Z,1008.3
2015-10-05T08:12:01.064Z,1008.2
2015-10-05T08:13:01.020Z,1008.3
2015-10-05T08:14:00.958Z,1008.2
2015-10-05T08:15:00.897Z,1008.5
2015-10-05T08:16:00.853Z,1008.4
2015-10-05T08:17:01.044Z,1008.3
2015-10-05T08:18:00.999Z,1008.4
2015-10-05T08:19:00.740Z,1008.5
2015-10-05T08:20:00.665Z,1008.5
2015-10-05T08:21:00.604Z,1008.5
2015-10-05T08:22:00.561Z,1008.4
2015-10-05T08:23:00.501Z,1008.4
2015-10-05T08:24:00.894Z,1008.4
2015-10-05T08:25:00.398Z,1008.4
2015-10-05T08:26:00.354Z,1008.4
2015-10-05T08:27:00.293Z,1008.5
2015-10-05T08:28:00.249Z,1008.5
2015-10-05T08:29:00.221Z,1008.4
2015-10-05T08:30:00.161Z,1008.5
2015-10-05T08:31:00.289Z,1008.5
2015-10-05T08:32:00.042Z,1008.4
2015-10-05T08:32:59.998Z,1008.4
2015-10-05T08:33:59.937Z,1008.5
2015-10-05T08:34:59.893Z,1008.5
2015-10-05T08:35:59.850Z,1008.4
2015-10-05T08:36:59.806Z,1008.5
2015-10-05T08:37:59.745Z,1008.5
2015-10-05T08:38:59.701Z,1008.6
2015-10-05T08:39:59.657Z,1008.6
2015-10-05T08:40:59.582Z,1008.5
2015-10-05T08:41:59.741Z,1008.5
2015-10-05T08:42:59.494Z,1008.5
2015-10-05T08:43:59.653Z,1008.6
2015-10-05T08:44:59.405Z,1008.7
2015-10-05T08:45:59.361Z,1008.6
2015-10-05T08:46:59.536Z,1008.7
2015-10-05T08:47:59.444Z,1008.6
2015-10-05T08:48:59.198Z,1008.5
2015-10-05T08:49:59.138Z,1008.6
2015-10-05T08:50:59.297Z,1008.6
2015-10-05T08:51:59.049Z,1008.5
2015-10-05T08:52:59.192Z,1008.7
2015-10-05T08:53:58.945Z,1008.6
2015-10-05T08:54:58.902Z,1008.6
2015-10-05T08:55:58.841Z,1008.6
2015-10-05T08:56:58.783Z,1008.6
2015-10-05T08:57:58.769Z,1008.6
2015-10-05T08:58:58.537Z,1008.7
2015-10-05T08:59:58.649Z,1008.5
2015-10-05T09:00:58.605Z,1008.4
2015-10-05T09:01:58.733Z,1008.6
2015-10-05T09:02:58.499Z,1008.5
2015-10-05T09:03:58.470Z,1008.6
2015-10-05T09:04:58.379Z,1008.5
2015-10-05T09:05:58.350Z,1008.7
2015-10-05T09:06:58.307Z,1008.6
2015-10-05T09:07:58.480Z,1008.5
2015-10-05T09:08:58.188Z,1008.6
2015-10-05T09:09:58.143Z,1008.6
2015-10-05T09:10:58.083Z,1008.6
2015-10-05T09:11:58.038Z,1008.5
2015-10-05T09:12:57.994Z,1008.5
2015-10-05T09:13:57.935Z,1008.6
2015-10-05T09:14:57.875Z,1008.5
2015-10-05T09:15:57.847Z,1008.5
2015-10-05T09:16:57.991Z,1008.5
2015-10-05T09:17:57.758Z,1008.5
2015-10-05T09:18:57.683Z,1008.4
2015-10-05T09:19:57.624Z,1008.5
2015-10-05T09:20:57.580Z,1008.5
2015-10-05T09:21:57.551Z,1008.5
2015-10-05T09:22:57.491Z,1008.5
2015-10-05T09:23:57.432Z,1008.4
2015-10-05T09:24:57.621Z,1008.3
2015-10-05T09:25:57.343Z,1008.3
2015-10-05T09:26:57.299Z,1008.3
2015-10-05T09:27:57.240Z,1008.3
2015-10-05T09:28:57.196Z,1008.4
2015-10-05T09:29:57.136Z,1008.3
2015-10-05T09:30:57.107Z,1008.4
2015-10-05T09:31:57.046Z,1008.3
2015-10-05T09:32:56.987Z,1008.2
2015-10-05T09:33:56.927Z,1008.2
2015-10-05T09:34:56.884Z,1008.4
2015-10-05T09:35:56.840Z,1008.2
2015-10-05T09:36:56.796Z,1008.3
2015-10-05T09:37:56.751Z,1008.3
2015-10-05T09:38:56.691Z,1008.3
2015-10-05T09:39:56.632Z,1008.1
2015-10-05T09:40:56.588Z,1008.2
2015-10-05T09:41:56.779Z,1008.2
2015-10-05T09:42:56.483Z,1008.1
2015-10-05T09:43:56.439Z,1008.1
2015-10-05T09:44:56.379Z,1008.1
2015-10-05T09:45:56.335Z,1008.2
2015-10-05T09:46:56.292Z,1008.2
2015-10-05T09:47:56.247Z,1008.2
2015-10-05T09:48:56.184Z,1008.2
2015-10-05T09:49:56.125Z,1008.1
2015-10-05T09:50:56.096Z,1008.1
2015-10-05T09:51:56.021Z,1008
2015-10-05T09:52:55.976Z,1008
2015-10-05T09:53:55.964Z,1008
2015-10-05T09:54:55.889Z,1008
2015-10-05T09:55:55.829Z,1008
2015-10-05T09:56:55.801Z,1008
2015-10-05T09:57:55.725Z,1008
2015-10-05T09:58:55.759Z,1008
2015-10-05T09:59:55.637Z,1008
2015-10-05T10:00:55.578Z,1008
2015-10-05T10:01:55.533Z,1007.9
2015-10-05T10:02:55.489Z,1007.9
2015-10-05T10:03:55.444Z,1008
2015-10-05T10:04:55.416Z,1007.9
2015-10-05T10:05:55.341Z,1007.8
2015-10-05T10:06:55.281Z,1007.8
2015-10-05T10:07:55.252Z,1007.7
2015-10-05T10:08:55.177Z,1007.8
2015-10-05T10:09:54.367Z,1007.8
2015-10-05T10:10:55.105Z,1007.8
2015-10-05T10:11:55.232Z,1007.8
2015-10-05T10:12:54.985Z,1007.7
2015-10-05T10:13:54.941Z,1007.8
2015-10-05T10:14:54.881Z,1007.7
2015-10-05T10:15:54.836Z,1007.7
2015-10-05T10:16:55.027Z,1007.7
2015-10-05T10:17:54.733Z,1007.5
2015-10-05T10:18:54.688Z,1007.6
2015-10-05T10:19:54.644Z,1007.5
2015-10-05T10:20:54.585Z,1007.5
2015-10-05T10:21:54.541Z,1007.5
2015-10-05T10:22:54.480Z,1007.6
2015-10-05T10:23:54.437Z,1007.5
2015-10-05T10:24:54.580Z,1007.6
2015-10-05T10:25:54.349Z,1007.4
2015-10-05T10:26:54.273Z,1007.4
2015-10-05T10:27:54.244Z,1007.5
2015-10-05T10:28:54.200Z,1007.4
2015-10-05T10:29:54.125Z,1007.4
2015-10-05T10:30:54.285Z,1007.4
2015-10-05T10:31:54.053Z,1007.3
2015-10-05T10:32:53.977Z,1007.4
2015-10-05T10:33:53.918Z,1007.3
2015-10-05T10:34:53.888Z,1007.4
2015-10-05T10:35:53.829Z,1007.3
2015-10-05T10:36:53.785Z,1007.2
2015-10-05T10:37:53.725Z,1007.2
2015-10-05T10:38:53.728Z,1007.2
2015-10-05T10:39:53.684Z,1007.1
2015-10-05T10:40:53.639Z,1007.1
2015-10-05T10:41:53.580Z,1007.1
2015-10-05T10:42:53.535Z,1007.1
2015-10-05T10:43:53.488Z,1007
2015-10-05T10:44:53.632Z,1007.1
2015-10-05T10:45:53.384Z,1007
2015-10-05T10:46:53.340Z,1007
2015-10-05T10:47:53.281Z,1007
2015-10-05T10:48:53.221Z,1007
2015-10-05T10:49:53.177Z,1007.1
2015-10-05T10:50:53.087Z,1007
2015-10-05T10:51:53.464Z,1006.9
2015-10-05T10:52:52.967Z,1006.9
2015-10-05T10:53:52.922Z,1006.9
2015-10-05T10:54:52.878Z,1006.9
2015-10-05T10:55:52.834Z,1006.9
2015-10-05T10:56:52.774Z,1007
2015-10-05T10:57:52.731Z,1006.9
2015-10-05T10:58:52.686Z,1007
2015-10-05T10:59:52.626Z,1006.9
2015-10-05T11:00:52.567Z,1006.8
2015-10-05T11:01:52.522Z,1006.8
2015-10-05T11:02:52.478Z,1006.9
2015-10-05T11:03:52.418Z,1006.8
2015-10-05T11:04:52.375Z,1006.7
2015-10-05T11:05:52.331Z,1006.7
2015-10-05T11:06:52.271Z,1006.6
2015-10-05T11:07:52.242Z,1006.7
2015-10-05T11:08:52.167Z,1006.6
2015-10-05T11:09:52.122Z,1006.7
2015-10-05T11:10:52.062Z,1006.6
2015-10-05T11:11:52.019Z,1006.6
2015-10-05T11:12:51.975Z,1006.7
2015-10-05T11:13:51.914Z,1006.7
2015-10-05T11:14:51.886Z,1006.6
2015-10-05T11:15:50.905Z,1006.7
2015-10-05T11:16:51.767Z,1006.6
2015-10-05T11:17:51.738Z,1006.6
2015-10-05T11:18:51.663Z,1006.5
2015-10-05T11:19:51.619Z,1006.7
2015-10-05T11:20:51.605Z,1006.6
2015-10-05T11:21:51.515Z,1006.7
2015-10-05T11:22:51.470Z,1006.6
2015-10-05T11:23:51.427Z,1006.5
2015-10-05T11:24:51.383Z,1006.5
2015-10-05T11:25:51.322Z,1006.6
2015-10-05T11:26:51.294Z,1006.6
2015-10-05T11:27:51.234Z,1006.5
2015-10-05T11:28:51.190Z,1006.5
2015-10-05T11:29:51.130Z,1006.5
2015-10-05T11:30:51.086Z,1006.6
2015-10-05T11:31:51.027Z,1006.6
2015-10-05T11:32:50.982Z,1006.5
2015-10-05T11:33:50.954Z,1006.5
2015-10-05T11:34:50.891Z,1006.5
2015-10-05T11:35:50.847Z,1006.6
2015-10-05T11:36:51.022Z,1006.6
2015-10-05T11:37:50.743Z,1006.7
2015-10-05T11:38:50.683Z,1006.5
2015-10-05T11:39:50.639Z,1006.5
2015-10-05T11:40:50.579Z,1006.6
2015-10-05T11:41:50.551Z,1006.6
2015-10-05T11:42:50.491Z,1006.6
2015-10-05T11:43:50.494Z,1006.6
2015-10-05T11:44:50.402Z,1006.5
2015-10-05T11:45:50.359Z,1006.6
2015-10-05T11:46:50.299Z,1006.6
2015-10-05T11:47:50.443Z,1006.6
2015-10-05T11:48:50.211Z,1006.5
2015-10-05T11:49:50.370Z,1006.6
2015-10-05T11:50:50.107Z,1006.5
2015-10-05T11:51:50.047Z,1006.5
2015-10-05T11:52:50.003Z,1006.5
2015-10-05T11:53:49.974Z,1006.6
2015-10-05T11:54:49.915Z,1006.6
2015-10-05T11:55:49.121Z,1006.6
2015-10-05T11:56:49.811Z,1006.6
2015-10-05T11:57:49.768Z,1006.5
2015-10-05T11:58:49.724Z,1006.7
2015-10-05T11:59:49.663Z,1006.7
2015-10-05T12:00:49.619Z,1006.7
2015-10-05T12:01:49.574Z,1006.6
2015-10-05T12:02:49.749Z,1006.6
2015-10-05T12:03:49.471Z,1006.5
2015-10-05T12:04:49.411Z,1006.6
2015-10-05T12:05:49.367Z,1006.6
2015-10-05T12:06:49.324Z,1006.7
2015-10-05T12:07:49.295Z,1006.5
2015-10-05T12:08:49.219Z,1006.5
2015-10-05T12:09:49.175Z,1006.4
2015-10-05T12:10:49.146Z,1006.5
2015-10-05T12:11:49.087Z,1006.6
2015-10-05T12:12:49.027Z,1006.5
2015-10-05T12:13:48.999Z,1006.5
2015-10-05T12:14:48.174Z,1006.5
2015-10-05T12:15:48.895Z,1006.4
2015-10-05T12:16:48.851Z,1006.5
2015-10-05T12:17:48.790Z,1006.5
2015-10-05T12:18:48.762Z,1006.5
2015-10-05T12:19:48.715Z,1006.5
2015-10-05T12:20:48.702Z,1006.5
2015-10-05T12:21:48.595Z,1006.6
2015-10-05T12:22:48.556Z,1006.6
2015-10-05T12:23:48.496Z,1006.5
2015-10-05T12:24:48.452Z,1006.4
2015-10-05T12:25:48.392Z,1006.5
2015-10-05T12:26:48.364Z,1006.3
2015-10-05T12:27:48.305Z,1006.3
2015-10-05T12:28:48.260Z,1006.4
2015-10-05T12:29:48.216Z,1006.5
2015-10-05T12:30:48.156Z,1006.3
2015-10-05T12:31:48.112Z,1006.3
2015-10-05T12:32:48.068Z,1006.3
2015-10-05T12:33:48.029Z,1006.3
2015-10-05T12:34:47.844Z,1006.2
2015-10-05T12:35:47.925Z,1006.3
2015-10-05T12:36:47.881Z,1006.3
2015-10-05T12:37:47.680Z,1006.2
2015-10-05T12:38:47.777Z,1006.2
2015-10-05T12:39:47.733Z,1006.3
2015-10-05T12:40:47.720Z,1006.2
2015-10-05T12:41:48.144Z,1006.2
2015-10-05T12:42:47.585Z,1006.1
2015-10-05T12:43:47.540Z,1006.1
2015-10-05T12:44:47.497Z,1006